LiveATC.Net - Listen to live air traffic control over the Internet!


ICAO: KGMU  IATA: GMU   Airport: Greenville Downtown Airport
City: Greenville   State/Province: South Carolina
Country: United States   Continent: North America
KGMU METAR Weather: KGMU 262353Z 13007KT 10SM FEW060 BKN075 31/17 A3013 RMK AO2 SLP190 T03110172 10333 20294 53000
KGMU Flight Activity (FlightAware)
KGMU Airport Info   (AirNav) (iFlightPlanner)
KGMU VFR Sectional Chart   (iFlightPlanner) 
KGMU IFR Low Chart   (iFlightPlanner) 
KGMU Tower
Feed Status: DOWN
Last heard on: 2016-01-10 02:48:03 (168 days 21 hours 33 minutes ago)
KGMU Tower Audio Archives
FacilityFrequency
Greenville Tower119.900


NOTICE

Unauthorized use prohibited. See LiveATC.net Terms of Service


Find LiveATC Audio Streams


Airport/ARTCC Code

Frequency
(e.g., 124.400, 128.75)
Site-wide search

Browse LiveATC Feeds
LiveATC Coverage Map
Top 50 LiveATC Feeds
Bad Weather Areas

LiveATC FAQ
Offer a LiveATC Feed
Contact LiveATC.net
Press Inquiries

LiveATC on iPhone
LiveATC on Android

Windows Phone
Windows 8/10

LiveATC Mobile
(Mobile browser)

ATC Audio Archives
Interesting Recordings

LiveATC Forums


Home Page
About LiveATC.net
Make a Donation
LiveATC Store

Terms of Use
Privacy Policy

Canadian Air Freqs

AIRMETs/SIGMETs

FAA Airport Status
Nat'l Airspace Status
Arrival Demand Charts


Server Software By:
Icecast.org
Liquidsoap